sensor_id;sensor_type;location;lat;lon;timestamp;P1;durP1;ratioP1;P2;durP2;ratioP2
1344;SDS011;15375;48.540;9.268;2023-03-21T00:00:12;3.53;;;2.67;;
1344;SDS011;15375;48.540;9.268;2023-03-21T00:02:38;5.60;;;2.40;;
1344;SDS011;15375;48.540;9.268;2023-03-21T00:05:03;3.33;;;3.03;;
1344;SDS011;15375;48.540;9.268;2023-03-21T00:07:29;2.87;;;2.67;;
1344;SDS011;15375;48.540;9.268;2023-03-21T00:09:55;3.33;;;3.03;;
1344;SDS011;15375;48.540;9.268;2023-03-21T00:12:20;4.23;;;2.90;;
1344;SDS011;15375;48.540;9.268;2023-03-21T00:14:46;2.80;;;2.40;;
1344;SDS011;15375;48.540;9.268;2023-03-21T00:17:11;3.00;;;2.77;;
1344;SDS011;15375;48.540;9.268;2023-03-21T00:19:37;4.40;;;2.60;;
1344;SDS011;15375;48.540;9.268;2023-03-21T00:22:03;5.83;;;2.77;;
1344;SDS011;15375;48.540;9.268;2023-03-21T00:24:29;3.83;;;2.53;;
1344;SDS011;15375;48.540;9.268;2023-03-21T00:26:54;3.33;;;3.03;;
1344;SDS011;15375;48.540;9.268;2023-03-21T00:29:20;2.90;;;2.60;;
1344;SDS011;15375;48.540;9.268;2023-03-21T00:31:45;4.37;;;3.00;;
1344;SDS011;15375;48.540;9.268;2023-03-21T00:34:11;2.87;;;2.67;;
1344;SDS011;15375;48.540;9.268;2023-03-21T00:36:36;3.70;;;3.10;;
1344;SDS011;15375;48.540;9.268;2023-03-21T00:39:01;2.87;;;2.57;;
1344;SDS011;15375;48.540;9.268;2023-03-21T00:41:28;3.97;;;3.30;;
1344;SDS011;15375;48.540;9.268;2023-03-21T00:43:53;4.20;;;2.40;;
1344;SDS011;15375;48.540;9.268;2023-03-21T00:46:19;3.00;;;2.70;;
1344;SDS011;15375;48.540;9.268;2023-03-21T00:48:45;4.67;;;2.80;;
1344;SDS011;15375;48.540;9.268;2023-03-21T00:51:11;3.57;;;3.27;;
1344;SDS011;15375;48.540;9.268;2023-03-21T00:53:39;2.77;;;2.57;;
1344;SDS011;15375;48.540;9.268;2023-03-21T00:56:05;4.13;;;3.07;;
1344;SDS011;15375;48.540;9.268;2023-03-21T00:58:31;4.13;;;2.70;;
1344;SDS011;15375;48.540;9.268;2023-03-21T01:00:56;3.63;;;2.90;;
1344;SDS011;15375;48.540;9.268;2023-03-21T01:03:21;3.57;;;2.50;;
1344;SDS011;15375;48.540;9.268;2023-03-21T01:05:50;3.83;;;2.77;;
1344;SDS011;15375;48.540;9.268;2023-03-21T01:08:30;2.73;;;2.53;;
1344;SDS011;15375;48.540;9.268;2023-03-21T01:10:59;5.37;;;2.70;;
1344;SDS011;15375;48.540;9.268;2023-03-21T01:13:26;4.00;;;2.70;;
1344;SDS011;15375;48.540;9.268;2023-03-21T01:15:53;2.73;;;2.50;;
1344;SDS011;15375;48.540;9.268;2023-03-21T01:18:20;3.43;;;2.63;;
1344;SDS011;15375;48.540;9.268;2023-03-21T01:20:50;4.60;;;2.70;;
1344;SDS011;15375;48.540;9.268;2023-03-21T01:23:15;4.43;;;2.80;;
1344;SDS011;15375;48.540;9.268;2023-03-21T01:25:41;4.30;;;2.90;;
1344;SDS011;15375;48.540;9.268;2023-03-21T01:28:07;3.23;;;2.93;;
1344;SDS011;15375;48.540;9.268;2023-03-21T01:30:33;12.43;;;3.40;;
1344;SDS011;15375;48.540;9.268;2023-03-21T01:32:59;6.43;;;2.97;;
1344;SDS011;15375;48.540;9.268;2023-03-21T01:35:25;5.37;;;3.70;;
1344;SDS011;15375;48.540;9.268;2023-03-21T01:37:50;2.87;;;2.67;;
1344;SDS011;15375;48.540;9.268;2023-03-21T01:40:17;4.03;;;2.97;;
1344;SDS011;15375;48.540;9.268;2023-03-21T01:42:45;4.17;;;2.90;;
1344;SDS011;15375;48.540;9.268;2023-03-21T01:48:13;7.10;;;2.57;;
1344;SDS011;15375;48.540;9.268;2023-03-21T01:50:39;6.83;;;2.70;;
1344;SDS011;15375;48.540;9.268;2023-03-21T01:53:07;4.23;;;3.83;;
1344;SDS011;15375;48.540;9.268;2023-03-21T01:55:33;4.20;;;3.00;;
1344;SDS011;15375;48.540;9.268;2023-03-21T01:58:01;3.33;;;2.90;;
1344;SDS011;15375;48.540;9.268;2023-03-21T02:00:28;4.00;;;3.00;;
1344;SDS011;15375;48.540;9.268;2023-03-21T02:02:55;4.60;;;3.17;;
1344;SDS011;15375;48.540;9.268;2023-03-21T02:05:33;3.63;;;2.87;;
1344;SDS011;15375;48.540;9.268;2023-03-21T02:08:05;4.33;;;3.03;;
1344;SDS011;15375;48.540;9.268;2023-03-21T02:10:31;4.80;;;3.23;;
1344;SDS011;15375;48.540;9.268;2023-03-21T02:12:57;3.20;;;2.90;;
1344;SDS011;15375;48.540;9.268;2023-03-21T02:15:37;4.53;;;3.50;;
1344;SDS011;15375;48.540;9.268;2023-03-21T02:21:13;3.00;;;2.70;;
1344;SDS011;15375;48.540;9.268;2023-03-21T02:27:07;3.43;;;3.13;;
1344;SDS011;15375;48.540;9.268;2023-03-21T02:41:01;4.03;;;3.00;;
1344;SDS011;15375;48.540;9.268;2023-03-21T02:48:53;6.43;;;2.73;;
1344;SDS011;15375;48.540;9.268;2023-03-21T02:51:22;3.20;;;2.90;;
1344;SDS011;15375;48.540;9.268;2023-03-21T02:53:53;3.20;;;3.00;;
1344;SDS011;15375;48.540;9.268;2023-03-21T02:56:26;2.83;;;2.63;;
1344;SDS011;15375;48.540;9.268;2023-03-21T02:58:52;3.47;;;3.10;;
1344;SDS011;15375;48.540;9.268;2023-03-21T03:01:18;3.60;;;3.30;;
1344;SDS011;15375;48.540;9.268;2023-03-21T03:03:43;5.07;;;3.03;;
1344;SDS011;15375;48.540;9.268;2023-03-21T03:06:14;3.70;;;2.50;;
1344;SDS011;15375;48.540;9.268;2023-03-21T03:14:31;3.83;;;3.53;;
1344;SDS011;15375;48.540;9.268;2023-03-21T03:22:49;5.80;;;3.20;;
1344;SDS011;15375;48.540;9.268;2023-03-21T03:25:21;7.17;;;3.40;;
1344;SDS011;15375;48.540;9.268;2023-03-21T03:28:11;4.00;;;3.60;;
1344;SDS011;15375;48.540;9.268;2023-03-21T03:30:39;4.20;;;3.80;;
1344;SDS011;15375;48.540;9.268;2023-03-21T03:33:06;4.00;;;3.60;;
1344;SDS011;15375;48.540;9.268;2023-03-21T03:35:34;3.83;;;3.50;;
1344;SDS011;15375;48.540;9.268;2023-03-21T03:38:00;5.13;;;4.10;;
1344;SDS011;15375;48.540;9.268;2023-03-21T03:40:45;4.73;;;4.33;;
1344;SDS011;15375;48.540;9.268;2023-03-21T03:43:17;4.20;;;3.67;;
1344;SDS011;15375;48.540;9.268;2023-03-21T03:45:49;5.57;;;3.80;;
1344;SDS011;15375;48.540;9.268;2023-03-21T03:48:26;4.57;;;4.13;;
1344;SDS011;15375;48.540;9.268;2023-03-21T03:51:06;3.97;;;3.43;;
1344;SDS011;15375;48.540;9.268;2023-03-21T03:53:39;3.90;;;3.50;;
1344;SDS011;15375;48.540;9.268;2023-03-21T03:56:08;4.70;;;3.50;;
1344;SDS011;15375;48.540;9.268;2023-03-21T03:58:37;5.07;;;4.63;;
1344;SDS011;15375;48.540;9.268;2023-03-21T04:01:03;4.37;;;3.97;;
1344;SDS011;15375;48.540;9.268;2023-03-21T04:03:31;5.30;;;3.90;;
1344;SDS011;15375;48.540;9.268;2023-03-21T04:05:59;6.70;;;3.90;;
1344;SDS011;15375;48.540;9.268;2023-03-21T04:08:24;4.60;;;3.83;;
1344;SDS011;15375;48.540;9.268;2023-03-21T04:10:50;4.23;;;3.63;;
1344;SDS011;15375;48.540;9.268;2023-03-21T04:13:15;4.10;;;3.70;;
1344;SDS011;15375;48.540;9.268;2023-03-21T04:15:40;4.83;;;4.43;;
1344;SDS011;15375;48.540;9.268;2023-03-21T04:18:08;4.73;;;3.83;;
1344;SDS011;15375;48.540;9.268;2023-03-21T04:20:33;3.80;;;3.37;;
1344;SDS011;15375;48.540;9.268;2023-03-21T04:22:58;4.43;;;3.27;;
1344;SDS011;15375;48.540;9.268;2023-03-21T04:25:24;5.40;;;4.10;;
1344;SDS011;15375;48.540;9.268;2023-03-21T04:27:52;4.40;;;4.10;;
1344;SDS011;15375;48.540;9.268;2023-03-21T04:30:19;4.10;;;3.73;;
1344;SDS011;15375;48.540;9.268;2023-03-21T04:32:45;3.97;;;3.67;;
1344;SDS011;15375;48.540;9.268;2023-03-21T04:35:18;4.30;;;3.90;;
1344;SDS011;15375;48.540;9.268;2023-03-21T04:37:44;4.57;;;4.17;;
1344;SDS011;15375;48.540;9.268;2023-03-21T04:40:09;4.13;;;3.40;;
1344;SDS011;15375;48.540;9.268;2023-03-21T04:42:36;4.03;;;3.37;;
1344;SDS011;15375;48.540;9.268;2023-03-21T04:45:01;4.70;;;3.50;;
1344;SDS011;15375;48.540;9.268;2023-03-21T04:47:28;5.17;;;4.30;;
1344;SDS011;15375;48.540;9.268;2023-03-21T04:49:53;4.60;;;3.67;;
1344;SDS011;15375;48.540;9.268;2023-03-21T04:52:19;5.70;;;3.80;;
1344;SDS011;15375;48.540;9.268;2023-03-21T04:54:44;5.37;;;3.60;;
1344;SDS011;15375;48.540;9.268;2023-03-21T04:57:10;4.17;;;3.50;;
1344;SDS011;15375;48.540;9.268;2023-03-21T04:59:35;5.03;;;3.93;;
1344;SDS011;15375;48.540;9.268;2023-03-21T05:02:01;6.73;;;3.60;;
1344;SDS011;15375;48.540;9.268;2023-03-21T05:04:27;5.83;;;4.10;;
1344;SDS011;15375;48.540;9.268;2023-03-21T05:06:53;10.43;;;4.23;;
1344;SDS011;15375;48.540;9.268;2023-03-21T05:09:20;4.10;;;3.60;;
1344;SDS011;15375;48.540;9.268;2023-03-21T05:11:46;4.83;;;3.77;;
1344;SDS011;15375;48.540;9.268;2023-03-21T05:14:13;5.10;;;4.30;;
1344;SDS011;15375;48.540;9.268;2023-03-21T05:16:41;5.63;;;4.70;;
1344;SDS011;15375;48.540;9.268;2023-03-21T05:19:12;4.87;;;4.43;;
1344;SDS011;15375;48.540;9.268;2023-03-21T05:21:38;6.40;;;4.60;;
1344;SDS011;15375;48.540;9.268;2023-03-21T05:24:07;7.57;;;3.67;;
1344;SDS011;15375;48.540;9.268;2023-03-21T05:26:36;5.07;;;3.30;;
1344;SDS011;15375;48.540;9.268;2023-03-21T05:29:02;8.20;;;3.87;;
1344;SDS011;15375;48.540;9.268;2023-03-21T05:31:27;6.93;;;4.27;;
1344;SDS011;15375;48.540;9.268;2023-03-21T05:33:53;5.53;;;4.03;;
1344;SDS011;15375;48.540;9.268;2023-03-21T05:36:18;4.60;;;4.10;;
1344;SDS011;15375;48.540;9.268;2023-03-21T05:38:45;4.90;;;3.73;;
1344;SDS011;15375;48.540;9.268;2023-03-21T05:41:13;5.10;;;4.60;;
1344;SDS011;15375;48.540;9.268;2023-03-21T05:43:40;5.30;;;3.50;;
1344;SDS011;15375;48.540;9.268;2023-03-21T05:46:06;6.40;;;5.00;;
1344;SDS011;15375;48.540;9.268;2023-03-21T05:48:32;6.00;;;5.40;;
1344;SDS011;15375;48.540;9.268;2023-03-21T05:50:58;5.97;;;5.40;;
1344;SDS011;15375;48.540;9.268;2023-03-21T05:53:24;7.50;;;4.73;;
1344;SDS011;15375;48.540;9.268;2023-03-21T05:55:49;6.90;;;5.47;;
1344;SDS011;15375;48.540;9.268;2023-03-21T05:58:14;7.00;;;5.10;;
1344;SDS011;15375;48.540;9.268;2023-03-21T06:00:40;5.10;;;4.60;;
1344;SDS011;15375;48.540;9.268;2023-03-21T06:03:05;6.83;;;4.60;;
1344;SDS011;15375;48.540;9.268;2023-03-21T06:05:30;11.07;;;4.73;;
1344;SDS011;15375;48.540;9.268;2023-03-21T06:07:56;4.17;;;3.77;;
1344;SDS011;15375;48.540;9.268;2023-03-21T06:10:21;6.93;;;4.00;;
1344;SDS011;15375;48.540;9.268;2023-03-21T06:12:47;5.43;;;3.90;;
1344;SDS011;15375;48.540;9.268;2023-03-21T06:15:12;4.67;;;4.03;;
1344;SDS011;15375;48.540;9.268;2023-03-21T06:17:37;5.03;;;4.40;;
1344;SDS011;15375;48.540;9.268;2023-03-21T06:20:03;6.20;;;4.87;;
1344;SDS011;15375;48.540;9.268;2023-03-21T06:22:31;6.43;;;4.50;;
1344;SDS011;15375;48.540;9.268;2023-03-21T06:24:57;5.57;;;3.87;;
1344;SDS011;15375;48.540;9.268;2023-03-21T06:27:22;5.80;;;5.07;;
1344;SDS011;15375;48.540;9.268;2023-03-21T06:29:48;4.33;;;3.50;;
1344;SDS011;15375;48.540;9.268;2023-03-21T06:32:13;8.13;;;4.07;;
1344;SDS011;15375;48.540;9.268;2023-03-21T06:34:40;5.10;;;3.70;;
1344;SDS011;15375;48.540;9.268;2023-03-21T06:37:05;5.10;;;4.10;;
1344;SDS011;15375;48.540;9.268;2023-03-21T06:39:31;6.67;;;4.63;;
1344;SDS011;15375;48.540;9.268;2023-03-21T06:41:57;7.53;;;3.90;;
1344;SDS011;15375;48.540;9.268;2023-03-21T06:44:23;6.10;;;4.60;;
1344;SDS011;15375;48.540;9.268;2023-03-21T06:46:49;6.43;;;4.13;;
1344;SDS011;15375;48.540;9.268;2023-03-21T06:49:15;7.90;;;3.93;;
1344;SDS011;15375;48.540;9.268;2023-03-21T06:51:40;4.23;;;3.83;;
1344;SDS011;15375;48.540;9.268;2023-03-21T06:54:06;4.97;;;4.50;;
1344;SDS011;15375;48.540;9.268;2023-03-21T06:56:31;5.10;;;3.97;;
1344;SDS011;15375;48.540;9.268;2023-03-21T06:58:57;5.10;;;4.60;;
1344;SDS011;15375;48.540;9.268;2023-03-21T07:01:22;6.07;;;4.50;;
1344;SDS011;15375;48.540;9.268;2023-03-21T07:03:48;9.43;;;4.83;;
1344;SDS011;15375;48.540;9.268;2023-03-21T07:06:14;7.70;;;4.70;;
1344;SDS011;15375;48.540;9.268;2023-03-21T07:08:40;4.30;;;3.90;;
1344;SDS011;15375;48.540;9.268;2023-03-21T07:11:06;5.80;;;4.70;;
1344;SDS011;15375;48.540;9.268;2023-03-21T07:13:32;5.03;;;4.33;;
1344;SDS011;15375;48.540;9.268;2023-03-21T07:15:58;5.43;;;4.33;;
1344;SDS011;15375;48.540;9.268;2023-03-21T07:18:24;6.70;;;5.23;;
1344;SDS011;15375;48.540;9.268;2023-03-21T07:20:50;5.30;;;4.80;;
1344;SDS011;15375;48.540;9.268;2023-03-21T07:23:19;6.20;;;4.47;;
1344;SDS011;15375;48.540;9.268;2023-03-21T07:25:46;9.13;;;4.73;;
1344;SDS011;15375;48.540;9.268;2023-03-21T07:28:13;4.80;;;4.30;;
1344;SDS011;15375;48.540;9.268;2023-03-21T07:30:39;4.57;;;4.17;;
1344;SDS011;15375;48.540;9.268;2023-03-21T07:33:05;7.30;;;5.00;;
1344;SDS011;15375;48.540;9.268;2023-03-21T07:35:31;5.43;;;4.27;;
1344;SDS011;15375;48.540;9.268;2023-03-21T07:37:57;6.17;;;5.67;;
1344;SDS011;15375;48.540;9.268;2023-03-21T07:40:23;4.73;;;4.20;;
1344;SDS011;15375;48.540;9.268;2023-03-21T07:42:48;9.63;;;7.50;;
1344;SDS011;15375;48.540;9.268;2023-03-21T07:45:16;6.30;;;4.97;;
1344;SDS011;15375;48.540;9.268;2023-03-21T07:47:46;5.30;;;4.40;;
1344;SDS011;15375;48.540;9.268;2023-03-21T07:50:15;4.90;;;4.40;;
1344;SDS011;15375;48.540;9.268;2023-03-21T07:52:41;4.20;;;3.90;;
1344;SDS011;15375;48.540;9.268;2023-03-21T07:55:06;5.10;;;4.57;;
1344;SDS011;15375;48.540;9.268;2023-03-21T07:57:32;9.07;;;7.20;;
1344;SDS011;15375;48.540;9.268;2023-03-21T07:59:58;6.00;;;5.40;;
1344;SDS011;15375;48.540;9.268;2023-03-21T08:02:23;7.63;;;4.73;;
1344;SDS011;15375;48.540;9.268;2023-03-21T08:04:49;4.63;;;3.97;;
1344;SDS011;15375;48.540;9.268;2023-03-21T08:07:15;6.30;;;4.20;;
1344;SDS011;15375;48.540;9.268;2023-03-21T08:09:41;5.67;;;4.20;;
1344;SDS011;15375;48.540;9.268;2023-03-21T08:12:07;4.00;;;3.53;;
1344;SDS011;15375;48.540;9.268;2023-03-21T08:14:33;5.40;;;3.80;;
1344;SDS011;15375;48.540;9.268;2023-03-21T08:16:58;4.13;;;3.73;;
1344;SDS011;15375;48.540;9.268;2023-03-21T08:19:24;4.03;;;3.73;;
1344;SDS011;15375;48.540;9.268;2023-03-21T08:21:51;4.40;;;4.00;;
1344;SDS011;15375;48.540;9.268;2023-03-21T08:24:17;7.63;;;6.20;;
1344;SDS011;15375;48.540;9.268;2023-03-21T08:26:42;6.50;;;5.60;;
1344;SDS011;15375;48.540;9.268;2023-03-21T08:29:09;4.53;;;4.13;;
1344;SDS011;15375;48.540;9.268;2023-03-21T08:31:35;4.77;;;4.37;;
1344;SDS011;15375;48.540;9.268;2023-03-21T08:34:01;4.50;;;4.10;;
1344;SDS011;15375;48.540;9.268;2023-03-21T08:36:27;5.73;;;3.73;;
1344;SDS011;15375;48.540;9.268;2023-03-21T08:38:54;7.97;;;3.93;;
1344;SDS011;15375;48.540;9.268;2023-03-21T08:41:28;6.00;;;3.63;;
1344;SDS011;15375;48.540;9.268;2023-03-21T08:43:54;3.77;;;3.47;;
1344;SDS011;15375;48.540;9.268;2023-03-21T08:46:19;4.80;;;4.40;;
1344;SDS011;15375;48.540;9.268;2023-03-21T08:48:44;5.13;;;3.90;;
1344;SDS011;15375;48.540;9.268;2023-03-21T08:51:10;4.57;;;4.13;;
1344;SDS011;15375;48.540;9.268;2023-03-21T08:53:35;4.50;;;4.10;;
1344;SDS011;15375;48.540;9.268;2023-03-21T08:56:00;6.60;;;4.27;;
1344;SDS011;15375;48.540;9.268;2023-03-21T08:58:26;4.30;;;3.90;;
1344;SDS011;15375;48.540;9.268;2023-03-21T09:00:51;4.20;;;3.80;;
1344;SDS011;15375;48.540;9.268;2023-03-21T09:03:20;4.73;;;3.80;;
1344;SDS011;15375;48.540;9.268;2023-03-21T09:05:45;5.13;;;4.40;;
1344;SDS011;15375;48.540;9.268;2023-03-21T09:08:11;4.40;;;4.00;;
1344;SDS011;15375;48.540;9.268;2023-03-21T09:10:37;4.17;;;3.87;;
1344;SDS011;15375;48.540;9.268;2023-03-21T09:13:02;4.73;;;4.33;;
1344;SDS011;15375;48.540;9.268;2023-03-21T09:15:28;3.80;;;3.60;;
1344;SDS011;15375;48.540;9.268;2023-03-21T09:17:53;4.13;;;3.73;;
1344;SDS011;15375;48.540;9.268;2023-03-21T09:20:21;3.70;;;3.17;;
1344;SDS011;15375;48.540;9.268;2023-03-21T09:22:54;3.87;;;3.57;;
1344;SDS011;15375;48.540;9.268;2023-03-21T09:25:21;4.23;;;3.50;;
1344;SDS011;15375;48.540;9.268;2023-03-21T09:27:48;4.13;;;3.70;;
1344;SDS011;15375;48.540;9.268;2023-03-21T09:30:16;4.70;;;3.13;;
1344;SDS011;15375;48.540;9.268;2023-03-21T09:32:44;5.97;;;4.13;;
1344;SDS011;15375;48.540;9.268;2023-03-21T09:35:12;4.53;;;3.40;;
1344;SDS011;15375;48.540;9.268;2023-03-21T09:37:40;5.17;;;3.40;;
1344;SDS011;15375;48.540;9.268;2023-03-21T09:40:08;4.50;;;3.30;;
1344;SDS011;15375;48.540;9.268;2023-03-21T09:42:47;7.50;;;6.67;;
1344;SDS011;15375;48.540;9.268;2023-03-21T09:47:53;3.00;;;2.80;;
1344;SDS011;15375;48.540;9.268;2023-03-21T09:50:30;2.80;;;2.60;;
1344;SDS011;15375;48.540;9.268;2023-03-21T09:55:43;6.13;;;3.20;;
1344;SDS011;15375;48.540;9.268;2023-03-21T10:01:41;3.60;;;3.30;;
1344;SDS011;15375;48.540;9.268;2023-03-21T10:03:54;4.47;;;3.30;;
1344;SDS011;15375;48.540;9.268;2023-03-21T10:06:25;3.77;;;3.47;;
1344;SDS011;15375;48.540;9.268;2023-03-21T10:08:56;3.13;;;2.83;;
1344;SDS011;15375;48.540;9.268;2023-03-21T10:11:29;3.13;;;2.83;;
1344;SDS011;15375;48.540;9.268;2023-03-21T10:14:04;3.40;;;3.10;;
1344;SDS011;15375;48.540;9.268;2023-03-21T10:16:43;4.37;;;2.87;;
1344;SDS011;15375;48.540;9.268;2023-03-21T10:19:14;3.33;;;3.03;;
1344;SDS011;15375;48.540;9.268;2023-03-21T10:21:42;3.23;;;3.03;;
1344;SDS011;15375;48.540;9.268;2023-03-21T10:24:11;3.20;;;2.90;;
1344;SDS011;15375;48.540;9.268;2023-03-21T10:26:39;3.17;;;2.87;;
1344;SDS011;15375;48.540;9.268;2023-03-21T10:29:04;3.50;;;2.90;;
1344;SDS011;15375;48.540;9.268;2023-03-21T10:31:30;3.33;;;3.03;;
1344;SDS011;15375;48.540;9.268;2023-03-21T10:33:58;5.37;;;3.10;;
1344;SDS011;15375;48.540;9.268;2023-03-21T10:36:30;3.53;;;2.50;;
1344;SDS011;15375;48.540;9.268;2023-03-21T10:42:00;3.60;;;2.93;;
1344;SDS011;15375;48.540;9.268;2023-03-21T10:44:29;6.83;;;3.03;;
1344;SDS011;15375;48.540;9.268;2023-03-21T10:47:07;2.60;;;2.33;;
1344;SDS011;15375;48.540;9.268;2023-03-21T10:49:34;3.33;;;3.03;;
1344;SDS011;15375;48.540;9.268;2023-03-21T10:52:02;7.10;;;3.27;;
1344;SDS011;15375;48.540;9.268;2023-03-21T10:54:33;4.07;;;2.60;;
1344;SDS011;15375;48.540;9.268;2023-03-21T10:57:05;5.70;;;2.60;;
1344;SDS011;15375;48.540;9.268;2023-03-21T10:59:55;3.80;;;3.00;;
1344;SDS011;15375;48.540;9.268;2023-03-21T11:02:29;3.30;;;3.00;;
1344;SDS011;15375;48.540;9.268;2023-03-21T11:07:43;2.90;;;2.70;;
1344;SDS011;15375;48.540;9.268;2023-03-21T11:10:13;3.23;;;2.93;;
1344;SDS011;15375;48.540;9.268;2023-03-21T11:12:40;3.70;;;2.93;;
1344;SDS011;15375;48.540;9.268;2023-03-21T11:15:31;10.60;;;3.70;;
1344;SDS011;15375;48.540;9.268;2023-03-21T11:18:17;2.87;;;2.67;;
1344;SDS011;15375;48.540;9.268;2023-03-21T11:20:52;4.00;;;3.00;;
1344;SDS011;15375;48.540;9.268;2023-03-21T11:23:25;3.57;;;3.20;;
1344;SDS011;15375;48.540;9.268;2023-03-21T11:25:53;3.43;;;2.90;;
1344;SDS011;15375;48.540;9.268;2023-03-21T11:28:23;5.10;;;2.83;;
1344;SDS011;15375;48.540;9.268;2023-03-21T11:30:51;2.63;;;2.37;;
1344;SDS011;15375;48.540;9.268;2023-03-21T11:33:19;2.70;;;2.50;;
1344;SDS011;15375;48.540;9.268;2023-03-21T11:35:57;4.20;;;3.27;;
1344;SDS011;15375;48.540;9.268;2023-03-21T11:38:31;3.77;;;3.00;;
1344;SDS011;15375;48.540;9.268;2023-03-21T11:41:02;2.50;;;2.30;;
1344;SDS011;15375;48.540;9.268;2023-03-21T11:43:30;3.67;;;3.37;;
1344;SDS011;15375;48.540;9.268;2023-03-21T11:46:00;5.10;;;2.83;;
1344;SDS011;15375;48.540;9.268;2023-03-21T11:48:29;2.97;;;2.70;;
1344;SDS011;15375;48.540;9.268;2023-03-21T11:51:44;6.43;;;3.23;;
1344;SDS011;15375;48.540;9.268;2023-03-21T11:56:46;3.23;;;2.90;;
1344;SDS011;15375;48.540;9.268;2023-03-21T12:21:14;3.97;;;3.67;;
1344;SDS011;15375;48.540;9.268;2023-03-21T12:39:35;3.03;;;2.83;;
1344;SDS011;15375;48.540;9.268;2023-03-21T12:45:10;4.33;;;3.60;;
1344;SDS011;15375;48.540;9.268;2023-03-21T12:47:41;3.83;;;3.20;;
1344;SDS011;15375;48.540;9.268;2023-03-21T12:50:14;4.10;;;3.40;;
1344;SDS011;15375;48.540;9.268;2023-03-21T12:52:57;4.40;;;3.10;;
1344;SDS011;15375;48.540;9.268;2023-03-21T12:55:28;3.53;;;3.30;;
1344;SDS011;15375;48.540;9.268;2023-03-21T13:03:14;6.03;;;3.50;;
1344;SDS011;15375;48.540;9.268;2023-03-21T13:05:54;5.07;;;3.87;;
1344;SDS011;15375;48.540;9.268;2023-03-21T13:08:36;3.70;;;3.50;;
1344;SDS011;15375;48.540;9.268;2023-03-21T13:11:06;4.70;;;3.37;;
1344;SDS011;15375;48.540;9.268;2023-03-21T13:13:38;2.90;;;2.70;;
1344;SDS011;15375;48.540;9.268;2023-03-21T13:22:09;5.00;;;3.10;;
1344;SDS011;15375;48.540;9.268;2023-03-21T13:27:17;4.33;;;3.60;;
1344;SDS011;15375;48.540;9.268;2023-03-21T13:29:58;3.83;;;3.53;;
1344;SDS011;15375;48.540;9.268;2023-03-21T13:34:57;4.00;;;3.60;;
1344;SDS011;15375;48.540;9.268;2023-03-21T13:37:28;3.37;;;3.10;;
1344;SDS011;15375;48.540;9.268;2023-03-21T13:39:59;6.73;;;3.43;;
1344;SDS011;15375;48.540;9.268;2023-03-21T13:42:33;3.10;;;2.80;;
1344;SDS011;15375;48.540;9.268;2023-03-21T13:44:59;5.10;;;3.47;;
1344;SDS011;15375;48.540;9.268;2023-03-21T13:55:27;5.83;;;5.23;;
1344;SDS011;15375;48.540;9.268;2023-03-21T13:57:54;5.83;;;4.17;;
1344;SDS011;15375;48.540;9.268;2023-03-21T14:00:26;3.67;;;3.37;;
1344;SDS011;15375;48.540;9.268;2023-03-21T14:05:22;3.80;;;3.30;;
1344;SDS011;15375;48.540;9.268;2023-03-21T14:07:54;3.67;;;3.37;;
1344;SDS011;15375;48.540;9.268;2023-03-21T14:10:33;4.57;;;3.27;;
1344;SDS011;15375;48.540;9.268;2023-03-21T14:13:05;3.47;;;3.17;;
1344;SDS011;15375;48.540;9.268;2023-03-21T14:15:41;3.60;;;3.00;;
1344;SDS011;15375;48.540;9.268;2023-03-21T14:18:14;10.73;;;9.90;;
1344;SDS011;15375;48.540;9.268;2023-03-21T14:20:41;8.17;;;7.53;;
1344;SDS011;15375;48.540;9.268;2023-03-21T14:23:09;4.30;;;3.90;;
1344;SDS011;15375;48.540;9.268;2023-03-21T14:25:38;3.80;;;3.30;;
1344;SDS011;15375;48.540;9.268;2023-03-21T14:28:07;3.93;;;3.20;;
1344;SDS011;15375;48.540;9.268;2023-03-21T14:30:40;3.67;;;2.67;;
1344;SDS011;15375;48.540;9.268;2023-03-21T14:33:12;3.23;;;2.50;;
1344;SDS011;15375;48.540;9.268;2023-03-21T14:35:51;2.13;;;1.93;;
1344;SDS011;15375;48.540;9.268;2023-03-21T14:38:23;2.80;;;2.40;;
1344;SDS011;15375;48.540;9.268;2023-03-21T14:40:56;3.30;;;2.53;;
1344;SDS011;15375;48.540;9.268;2023-03-21T14:43:22;5.40;;;4.10;;
1344;SDS011;15375;48.540;9.268;2023-03-21T14:45:50;10.10;;;5.53;;
1344;SDS011;15375;48.540;9.268;2023-03-21T14:48:18;3.20;;;2.80;;
1344;SDS011;15375;48.540;9.268;2023-03-21T14:50:51;4.27;;;3.40;;
1344;SDS011;15375;48.540;9.268;2023-03-21T14:53:19;2.50;;;1.90;;
1344;SDS011;15375;48.540;9.268;2023-03-21T14:55:46;3.03;;;2.03;;
1344;SDS011;15375;48.540;9.268;2023-03-21T14:58:16;2.30;;;1.90;;
1344;SDS011;15375;48.540;9.268;2023-03-21T15:00:43;1.80;;;1.70;;
1344;SDS011;15375;48.540;9.268;2023-03-21T15:03:13;2.90;;;2.10;;
1344;SDS011;15375;48.540;9.268;2023-03-21T15:05:41;1.90;;;1.80;;
1344;SDS011;15375;48.540;9.268;2023-03-21T15:10:35;2.50;;;1.33;;
1344;SDS011;15375;48.540;9.268;2023-03-21T15:13:11;2.13;;;1.70;;
1344;SDS011;15375;48.540;9.268;2023-03-21T15:15:39;2.37;;;1.30;;
1344;SDS011;15375;48.540;9.268;2023-03-21T15:18:05;1.53;;;1.30;;
1344;SDS011;15375;48.540;9.268;2023-03-21T15:20:32;1.43;;;1.33;;
1344;SDS011;15375;48.540;9.268;2023-03-21T15:23:44;4.30;;;1.40;;
1344;SDS011;15375;48.540;9.268;2023-03-21T15:25:55;2.37;;;1.50;;
1344;SDS011;15375;48.540;9.268;2023-03-21T15:28:21;1.93;;;1.10;;
1344;SDS011;15375;48.540;9.268;2023-03-21T15:30:50;3.70;;;2.20;;
1344;SDS011;15375;48.540;9.268;2023-03-21T15:33:17;4.63;;;1.53;;
1344;SDS011;15375;48.540;9.268;2023-03-21T15:35:45;1.53;;;1.40;;
1344;SDS011;15375;48.540;9.268;2023-03-21T15:41:12;2.30;;;1.30;;
1344;SDS011;15375;48.540;9.268;2023-03-21T15:43:39;1.50;;;1.27;;
1344;SDS011;15375;48.540;9.268;2023-03-21T15:46:11;1.47;;;1.30;;
1344;SDS011;15375;48.540;9.268;2023-03-21T15:48:41;1.53;;;1.07;;
1344;SDS011;15375;48.540;9.268;2023-03-21T15:51:10;1.80;;;1.00;;
1344;SDS011;15375;48.540;9.268;2023-03-21T15:53:43;6.23;;;1.83;;
1344;SDS011;15375;48.540;9.268;2023-03-21T15:56:08;1.73;;;1.13;;
1344;SDS011;15375;48.540;9.268;2023-03-21T15:58:43;1.13;;;0.90;;
1344;SDS011;15375;48.540;9.268;2023-03-21T16:01:15;1.70;;;1.37;;
1344;SDS011;15375;48.540;9.268;2023-03-21T16:03:44;2.40;;;1.30;;
1344;SDS011;15375;48.540;9.268;2023-03-21T16:08:42;1.30;;;1.20;;
1344;SDS011;15375;48.540;9.268;2023-03-21T16:13:48;1.40;;;1.20;;
1344;SDS011;15375;48.540;9.268;2023-03-21T16:16:19;2.73;;;1.37;;
1344;SDS011;15375;48.540;9.268;2023-03-21T16:18:49;1.40;;;1.20;;
1344;SDS011;15375;48.540;9.268;2023-03-21T16:21:16;2.33;;;1.20;;
1344;SDS011;15375;48.540;9.268;2023-03-21T16:23:43;1.10;;;1.00;;
1344;SDS011;15375;48.540;9.268;2023-03-21T16:26:10;1.63;;;1.13;;
1344;SDS011;15375;48.540;9.268;2023-03-21T16:28:38;2.20;;;1.70;;
1344;SDS011;15375;48.540;9.268;2023-03-21T16:31:03;3.20;;;2.90;;
1344;SDS011;15375;48.540;9.268;2023-03-21T16:33:29;3.50;;;3.20;;
1344;SDS011;15375;48.540;9.268;2023-03-21T16:35:54;2.77;;;2.57;;
1344;SDS011;15375;48.540;9.268;2023-03-21T16:38:21;3.60;;;2.60;;
1344;SDS011;15375;48.540;9.268;2023-03-21T16:40:47;2.90;;;2.60;;
1344;SDS011;15375;48.540;9.268;2023-03-21T16:43:13;2.23;;;2.00;;
1344;SDS011;15375;48.540;9.268;2023-03-21T16:45:38;2.30;;;2.10;;
1344;SDS011;15375;48.540;9.268;2023-03-21T16:48:04;2.50;;;2.30;;
1344;SDS011;15375;48.540;9.268;2023-03-21T16:50:31;5.40;;;2.20;;
1344;SDS011;15375;48.540;9.268;2023-03-21T16:53:07;3.00;;;2.20;;
1344;SDS011;15375;48.540;9.268;2023-03-21T16:55:33;40.73;;;5.83;;
1344;SDS011;15375;48.540;9.268;2023-03-21T16:57:59;3.73;;;1.70;;
1344;SDS011;15375;48.540;9.268;2023-03-21T17:00:25;1.10;;;1.00;;
1344;SDS011;15375;48.540;9.268;2023-03-21T17:02:53;1.10;;;1.00;;
1344;SDS011;15375;48.540;9.268;2023-03-21T17:05:24;2.80;;;1.20;;
1344;SDS011;15375;48.540;9.268;2023-03-21T17:07:51;3.83;;;1.40;;
1344;SDS011;15375;48.540;9.268;2023-03-21T17:10:22;2.27;;;1.50;;
1344;SDS011;15375;48.540;9.268;2023-03-21T17:12:50;1.40;;;1.30;;
1344;SDS011;15375;48.540;9.268;2023-03-21T17:15:16;1.73;;;1.40;;
1344;SDS011;15375;48.540;9.268;2023-03-21T17:17:42;1.33;;;1.23;;
1344;SDS011;15375;48.540;9.268;2023-03-21T17:20:13;1.70;;;1.50;;